»·PEaware :: DAL9895 KBFM-KHSV

DAL9895 :: KBFM-KHSV

FLIGHT INFORMATION

Flight Status: Arrived
Operator:
Delta Air Lines
More flights by this operator :: More flights under this callsign
Pilot: James B. (24167)
Aircraft: AIRBUS A319
(A319)
More flights by this aircraft type
Origin: KBFM Mobile Downtown
United States
Destination: KHSV Huntsville Intl-Jones
United States
More flights between these airports :: More routes between these airports
Route: SJI J69 VUZ
File this flight plan on PilotEdge
Remarks: OFF PE COVERAGE / / TOLISS A319 BASE TRAINING FLIGHT
Altitude:
(Current/Filed)
29,000ft
Speed:
(Current/Filed)
426kts
Departed: 20-Oct-19 06:26 PM
Arrived: 20-Oct-19 08:51 PM
Distance/Time
Traveled:
250nm/2:25
Distance/Time
To Go:
Arrived

Flight Plot

Page will automatically refresh every two minutes.

Flight plan parsing failed; only flown route is shown


Map Options




Map Legend


Flown Route
Filed Route
Departure Airport
Arrival Airport
Navaid (VOR, NDB)
Fix

Horizontal Profiles

Position Reports

Time Latitude Longitude Heading Altitude Ground
Speed
20-Oct-19 18:11 30.636440 -88.076466 148 28ft 0kts
20-Oct-19 18:12 30.636440 -88.076466 148 28ft 0kts
20-Oct-19 18:13 30.636440 -88.076466 148 28ft 0kts
20-Oct-19 18:14 30.636440 -88.076466 148 28ft 0kts
20-Oct-19 18:15 30.636440 -88.076466 148 28ft 0kts
20-Oct-19 18:16 30.636440 -88.076466 148 28ft 0kts
20-Oct-19 18:16 30.636440 -88.076466 148 28ft 0kts
20-Oct-19 18:18 30.636440 -88.076466 148 28ft 0kts
20-Oct-19 18:19 30.636440 -88.076466 148 28ft 0kts
20-Oct-19 18:20 30.636440 -88.076466 148 28ft 0kts
20-Oct-19 18:20 30.636440 -88.076466 148 28ft 0kts
20-Oct-19 18:21 30.636177 -88.076334 156 28ft 2kts
20-Oct-19 18:23 30.635098 -88.075787 155 28ft 7kts
20-Oct-19 18:23 30.634481 -88.076138 248 28ft 8kts
20-Oct-19 18:24 30.632827 -88.078929 232 28ft 9kts
20-Oct-19 18:25 30.627321 -88.074092 138 25ft 107kts
20-Oct-19 18:26 30.590474 -88.044322 184 2141ft 174kts
20-Oct-19 18:27 30.584724 -88.096696 323 4080ft 255kts
20-Oct-19 18:28 30.655858 -88.121626 312 7350ft 278kts
20-Oct-19 18:29 30.677138 -88.205827 286 10638ft 286kts
20-Oct-19 18:30 30.707333 -88.301853 291 12911ft 331kts
20-Oct-19 18:31 30.786749 -88.339757 13 15794ft 354kts
20-Oct-19 18:32 30.884762 -88.304658 15 18195ft 372kts
20-Oct-19 18:33 30.989035 -88.275173 10 20313ft 388kts
20-Oct-19 18:34 31.097255 -88.242282 11 22282ft 403kts
20-Oct-19 18:35 31.208045 -88.207766 11 23965ft 417kts
20-Oct-19 18:36 31.324563 -88.171164 10 25602ft 428kts
20-Oct-19 18:37 31.445077 -88.133254 9 27080ft 439kts
20-Oct-19 18:38 31.566772 -88.094867 9 28424ft 449kts
20-Oct-19 18:39 31.691158 -88.055528 8 29004ft 454kts
20-Oct-19 18:40 31.815539 -88.016087 8 29005ft 455kts
20-Oct-19 18:41 31.940039 -87.976484 8 29006ft 455kts
20-Oct-19 18:42 32.066529 -87.936132 8 29006ft 455kts
20-Oct-19 18:43 32.192405 -87.895937 8 29005ft 455kts
20-Oct-19 18:44 32.272626 -87.870252 9 29002ft 456kts
20-Oct-19 18:45 32.324638 -87.853604 9 29002ft 460kts
20-Oct-19 18:46 30.636440 -88.076466 148 28ft 0kts
20-Oct-19 18:47 30.636440 -88.076466 148 28ft 0kts
20-Oct-19 18:48 30.636440 -88.076466 148 28ft 0kts
20-Oct-19 18:49 30.636272 -88.076386 157 28ft 2kts
20-Oct-19 18:50 30.634350 -88.076579 233 28ft 9kts
20-Oct-19 18:51 30.632979 -88.078705 232 28ft 9kts
20-Oct-19 18:52 30.632633 -88.079226 232 28ft 0kts
20-Oct-19 18:53 30.632105 -88.078958 140 28ft 7kts
20-Oct-19 18:54 30.608507 -88.055150 139 691ft 179kts
20-Oct-19 18:55 30.573872 -88.066830 269 3170ft 201kts
20-Oct-19 18:56 30.625122 -88.109736 320 5426ft 273kts
20-Oct-19 18:57 30.666424 -88.183547 292 8994ft 280kts
20-Oct-19 18:58 30.697305 -88.272254 290 11220ft 329kts
20-Oct-19 18:59 30.760357 -88.344564 355 14513ft 342kts
20-Oct-19 19:00 30.856188 -88.318043 13 17009ft 364kts
20-Oct-19 19:01 30.958077 -88.285917 12 19265ft 381kts
20-Oct-19 19:02 31.064680 -88.252580 11 21311ft 397kts
20-Oct-19 19:03 31.172425 -88.218929 10 23163ft 409kts
20-Oct-19 19:04 31.285545 -88.183467 10 24802ft 423kts
20-Oct-19 19:05 31.401503 -88.147031 9 26297ft 434kts
20-Oct-19 19:06 31.519870 -88.109732 9 27690ft 444kts
20-Oct-19 19:07 31.641384 -88.071337 8 28970ft 454kts
20-Oct-19 19:08 31.764810 -88.032218 8 29006ft 454kts
20-Oct-19 19:09 31.887794 -87.993143 8 29006ft 455kts
20-Oct-19 19:10 32.010279 -87.954141 8 29006ft 455kts
20-Oct-19 19:11 32.135496 -87.914149 8 29001ft 454kts
20-Oct-19 19:12 32.261673 -87.873792 8 29009ft 455kts
20-Oct-19 19:13 32.388373 -87.833088 8 29013ft 459kts
20-Oct-19 19:14 32.516029 -87.791935 8 29013ft 459kts
20-Oct-19 19:15 32.643455 -87.750745 8 29013ft 459kts
20-Oct-19 19:16 32.770156 -87.709668 8 29010ft 458kts
20-Oct-19 19:17 32.898571 -87.667932 8 29018ft 460kts
20-Oct-19 19:18 33.025724 -87.626483 8 29015ft 460kts
20-Oct-19 19:19 33.152481 -87.585100 8 29011ft 460kts
20-Oct-19 19:20 33.266421 -87.508365 49 29024ft 484kts
20-Oct-19 19:21 33.300726 -87.455819 50 29015ft 485kts
20-Oct-19 19:22 33.385261 -87.327143 50 29007ft 485kts
20-Oct-19 19:23 33.470458 -87.198998 49 29039ft 485kts
20-Oct-19 19:24 33.556558 -87.069691 49 29048ft 485kts
20-Oct-19 19:25 33.642089 -86.940939 47 28770ft 483kts
20-Oct-19 19:26 33.757325 -86.876408 2 27780ft 443kts
20-Oct-19 19:27 33.879420 -86.849721 3 26555ft 433kts
20-Oct-19 19:28 33.997617 -86.822206 4 24906ft 422kts
20-Oct-19 19:29 34.113118 -86.795121 4 23234ft 411kts
20-Oct-19 19:30 34.225139 -86.768790 5 21608ft 398kts
20-Oct-19 19:31 34.333720 -86.743140 5 19972ft 387kts
20-Oct-19 19:32 34.438688 -86.718333 6 18343ft 376kts
20-Oct-19 19:33 34.540337 -86.694226 6 16727ft 365kts
20-Oct-19 19:34 34.639239 -86.670725 6 15111ft 355kts
20-Oct-19 19:35 34.735370 -86.647826 6 13497ft 345kts
20-Oct-19 19:36 34.809156 -86.686825 283 12305ft 283kts
20-Oct-19 19:37 34.827024 -86.771983 281 12220ft 234kts
20-Oct-19 19:38 34.867733 -86.832275 310 11297ft 223kts
20-Oct-19 19:39 34.923004 -86.852946 30 10322ft 245kts
20-Oct-19 19:40 34.926225 -86.783270 151 9271ft 226kts
20-Oct-19 19:41 34.868985 -86.776698 187 8222ft 206kts
20-Oct-19 19:42 34.812363 -86.783082 216 7144ft 198kts
20-Oct-19 19:43 34.798777 -86.838864 298 6145ft 187kts
20-Oct-19 19:44 34.847539 -86.855763 36 4467ft 218kts
20-Oct-19 19:45 34.857385 -86.795554 130 3478ft 190kts
20-Oct-19 19:46 34.810602 -86.774827 156 3202ft 182kts
20-Oct-19 19:47 34.760468 -86.779566 180 2794ft 177kts
20-Oct-19 19:48 34.716017 -86.780960 178 1894ft 143kts
20-Oct-19 19:49 34.676248 -86.781671 178 1132ft 142kts
20-Oct-19 19:50 34.638566 -86.782363 182 625ft 104kts
20-Oct-19 19:51 34.592447 -86.783330 175 2185ft 190kts
20-Oct-19 19:52 34.583710 -86.736568 33 2199ft 198kts
20-Oct-19 19:53 34.638622 -86.730520 2 2099ft 198kts
20-Oct-19 19:54 34.691336 -86.728124 2 2178ft 184kts
20-Oct-19 19:55 34.707104 -86.763519 221 1499ft 152kts
20-Oct-19 19:56 34.665752 -86.765380 178 896ft 148kts
20-Oct-19 19:57 34.626807 -86.766069 180 678ft 174kts
20-Oct-19 19:58 34.577683 -86.755428 146 2169ft 175kts
20-Oct-19 19:59 34.533847 -86.735562 206 2286ft 192kts
20-Oct-19 20:00 34.544613 -86.783130 8 2083ft 183kts
20-Oct-19 20:01 34.587141 -86.768418 16 1379ft 147kts
20-Oct-19 20:02 34.627732 -86.765986 3 607ft 144kts
20-Oct-19 20:03 34.672326 -86.764893 3 2117ft 183kts
20-Oct-19 20:04 34.701038 -86.720381 91 2196ft 191kts
20-Oct-19 20:05 34.659269 -86.698115 184 2098ft 200kts
20-Oct-19 20:06 34.603547 -86.702900 184 2213ft 201kts
20-Oct-19 20:07 34.563248 -86.725834 274 1996ft 148kts
20-Oct-19 20:08 34.581596 -86.764796 353 1520ft 145kts
20-Oct-19 20:10 34.621556 -86.766146 2 717ft 142kts
20-Oct-19 20:11 34.664885 -86.765293 2 1344ft 196kts
20-Oct-19 20:12 34.687572 -86.730760 134 2229ft 186kts
20-Oct-19 20:13 34.637413 -86.724815 181 2091ft 185kts
20-Oct-19 20:14 34.585920 -86.727288 181 2136ft 183kts
20-Oct-19 20:15 34.565979 -86.762074 300 1695ft 154kts
20-Oct-19 20:16 34.606200 -86.766442 1 994ft 149kts
20-Oct-19 20:17 34.646550 -86.765635 1 623ft 176kts
20-Oct-19 20:18 34.690622 -86.744451 86 2117ft 187kts
20-Oct-19 20:19 34.651966 -86.720731 181 2132ft 184kts
20-Oct-19 20:20 34.600654 -86.722999 182 2202ft 184kts
20-Oct-19 20:21 34.560667 -86.740414 263 1869ft 147kts
20-Oct-19 20:22 34.585630 -86.767247 3 1347ft 150kts
20-Oct-19 20:23 34.627111 -86.765994 2 617ft 145kts
20-Oct-19 20:24 34.672301 -86.765429 2 1950ft 196kts
20-Oct-19 20:25 34.689930 -86.724049 147 2170ft 184kts
20-Oct-19 20:26 34.638941 -86.720520 181 2014ft 183kts
20-Oct-19 20:27 34.588022 -86.722289 182 2156ft 184kts
20-Oct-19 20:27 34.561128 -86.745589 269 1895ft 148kts
20-Oct-19 20:29 34.599715 -86.766669 2 1157ft 149kts
20-Oct-19 20:30 34.639766 -86.765714 359 604ft 142kts
20-Oct-19 20:31 34.687496 -86.748432 67 2238ft 227kts
20-Oct-19 20:31 34.668131 -86.709642 183 2151ft 184kts
20-Oct-19 20:32 34.617000 -86.712113 181 2221ft 183kts
20-Oct-19 20:34 34.562351 -86.723622 243 2033ft 164kts
20-Oct-19 20:34 34.570170 -86.761359 335 1697ft 150kts
20-Oct-19 20:35 34.611034 -86.766388 1 954ft 148kts
20-Oct-19 20:36 34.652870 -86.765399 2 907ft 187kts
20-Oct-19 20:37 34.696730 -86.744758 93 2169ft 185kts
20-Oct-19 20:38 34.659406 -86.714550 181 2118ft 183kts
20-Oct-19 20:39 34.608478 -86.716617 182 2097ft 183kts
20-Oct-19 20:40 34.562332 -86.725776 239 2239ft 145kts
20-Oct-19 20:41 34.576286 -86.763583 348 1545ft 151kts
20-Oct-19 20:42 34.617543 -86.766227 1 810ft 146kts
20-Oct-19 20:43 34.660054 -86.765544 1 1225ft 194kts
20-Oct-19 20:44 34.712564 -86.751211 31 2146ft 194kts
20-Oct-19 20:45 34.760484 -86.719405 18 2133ft 197kts
20-Oct-19 20:46 34.777454 -86.760913 211 2082ft 182kts
20-Oct-19 20:47 34.735347 -86.764038 178 2182ft 143kts
20-Oct-19 20:48 34.696223 -86.764659 178 1479ft 139kts
20-Oct-19 20:49 34.657511 -86.765414 178 752ft 138kts
20-Oct-19 20:50 34.634659 -86.766020 219 589ft 15kts
20-Oct-19 20:51 34.637023 -86.767276 0 595ft 9kts
20-Oct-19 20:52 34.641180 -86.767206 1 605ft 23kts
20-Oct-19 20:53 34.647379 -86.767083 0 606ft 14kts
20-Oct-19 20:54 34.648346 -86.768477 271 606ft 0kts
20-Oct-19 20:55 34.648895 -86.769722 350 608ft 9kts
20-Oct-19 20:56 34.649284 -86.769707 0 607ft 0kts

Navigation Log

Ident Type
Flight plan parsing failed, navigation log unavailable